createdAt,value
2023-04-16T00:01:19.681Z,92.59
2023-04-16T00:04:04.784Z,92.06
2023-04-16T00:06:49.914Z,91.76
2023-04-16T00:09:35.035Z,92.46
2023-04-16T00:12:20.266Z,92.71
2023-04-16T00:15:06.044Z,92.42
2023-04-16T00:17:50.932Z,91.88
2023-04-16T00:20:35.687Z,92.15
2023-04-16T00:23:21.193Z,91.53
2023-04-16T00:26:06.192Z,92.14
2023-04-16T00:28:52.046Z,91.91
2023-04-16T00:31:36.901Z,91.12
2023-04-16T00:34:22.124Z,91.33
2023-04-16T00:37:07.082Z,90.71
2023-04-16T00:39:52.269Z,90.97
2023-04-16T00:42:37.984Z,91.30
2023-04-16T00:45:22.792Z,91.06
2023-04-16T00:48:07.738Z,90.85
2023-04-16T00:50:54.954Z,90.90
2023-04-16T00:53:40.582Z,91.03
2023-04-16T00:56:25.667Z,91.28
2023-04-16T00:59:11.813Z,91.42
2023-04-16T01:01:56.980Z,90.74
2023-04-16T01:04:42.723Z,90.71
2023-04-16T01:07:27.565Z,90.84
2023-04-16T01:10:12.704Z,90.70
2023-04-16T01:12:58.237Z,91.42
2023-04-16T01:15:43.518Z,90.71
2023-04-16T01:18:28.280Z,90.69
2023-04-16T01:21:13.536Z,90.22
2023-04-16T01:24:02.493Z,90.66
2023-04-16T01:26:48.613Z,91.02
2023-04-16T01:29:34.733Z,90.62
2023-04-16T01:32:19.891Z,91.54
2023-04-16T01:35:05.441Z,91.17
2023-04-16T01:37:51.316Z,90.54
2023-04-16T01:40:37.411Z,91.25
2023-04-16T01:43:22.583Z,90.87
2023-04-16T01:46:29.632Z,91.02
2023-04-16T01:49:15.686Z,90.53
2023-04-16T01:52:01.070Z,90.40
2023-04-16T01:54:46.097Z,90.91
2023-04-16T01:57:31.600Z,91.04
2023-04-16T02:00:16.852Z,91.04
2023-04-16T02:03:01.986Z,91.04
2023-04-16T02:05:47.373Z,91.19
2023-04-16T02:08:32.496Z,91.15
2023-04-16T02:11:18.011Z,91.36
2023-04-16T02:14:02.748Z,91.19
2023-04-16T02:16:48.101Z,91.21
2023-04-16T02:19:33.254Z,91.12
2023-04-16T02:22:18.604Z,91.17
2023-04-16T02:25:03.700Z,91.04
2023-04-16T02:27:49.266Z,90.71
2023-04-16T02:30:36.507Z,90.98
2023-04-16T02:33:22.548Z,90.66
2023-04-16T02:36:07.533Z,91.22
2023-04-16T02:38:53.280Z,91.13
2023-04-16T02:41:38.536Z,91.29
2023-04-16T02:44:23.299Z,91.11
2023-04-16T02:47:08.561Z,91.14
2023-04-16T02:49:53.405Z,90.93
2023-04-16T02:52:38.324Z,91.33
2023-04-16T02:55:23.090Z,90.75
2023-04-16T02:58:08.444Z,90.75
2023-04-16T03:00:54.325Z,91.59
2023-04-16T03:03:39.665Z,91.43
2023-04-16T03:06:24.576Z,91.37
2023-04-16T03:09:09.543Z,91.57
2023-04-16T03:11:55.173Z,91.03
2023-04-16T03:14:42.260Z,90.84
2023-04-16T03:17:27.762Z,90.85
2023-04-16T03:20:12.675Z,90.68
2023-04-16T03:22:57.746Z,91.15
2023-04-16T03:25:44.476Z,90.96
2023-04-16T03:28:30.147Z,91.27
2023-04-16T03:31:15.295Z,91.04
2023-04-16T03:34:00.470Z,90.89
2023-04-16T03:36:45.819Z,91.17
2023-04-16T03:39:31.248Z,91.32
2023-04-16T03:42:16.076Z,91.26
2023-04-16T03:45:01.057Z,91.91
2023-04-16T03:47:48.482Z,92.04
2023-04-16T03:50:33.511Z,91.21
2023-04-16T03:53:18.905Z,92.10
2023-04-16T03:56:03.988Z,92.28
2023-04-16T03:58:49.615Z,92.22
2023-04-16T04:01:34.694Z,92.33
2023-04-16T04:04:20.294Z,92.26
2023-04-16T04:07:05.442Z,92.07
2023-04-16T04:09:50.770Z,91.72
2023-04-16T04:12:36.113Z,93.05
2023-04-16T04:15:21.305Z,92.92
2023-04-16T04:18:06.314Z,92.02
2023-04-16T04:20:52.105Z,92.77
2023-04-16T04:23:37.213Z,92.30
2023-04-16T04:26:22.398Z,92.54
2023-04-16T04:29:07.745Z,92.04
2023-04-16T04:31:53.377Z,92.09
2023-04-16T04:34:38.557Z,91.66
2023-04-16T04:37:23.485Z,91.55
2023-04-16T04:40:09.988Z,92.15
2023-04-16T04:42:54.986Z,91.11
2023-04-16T04:45:41.083Z,91.54
2023-04-16T04:48:27.488Z,91.48
2023-04-16T04:51:13.115Z,91.14
2023-04-16T04:53:58.483Z,91.15
2023-04-16T04:56:45.864Z,91.29
2023-04-16T04:59:31.073Z,91.79
2023-04-16T05:02:16.024Z,92.15
2023-04-16T05:05:01.185Z,91.28
2023-04-16T05:07:46.137Z,91.25
2023-04-16T05:10:31.375Z,91.24
2023-04-16T05:13:16.259Z,90.33
2023-04-16T05:16:01.115Z,91.18
2023-04-16T05:18:45.939Z,90.37
2023-04-16T05:21:31.250Z,90.23
2023-04-16T05:24:16.227Z,90.41
2023-04-16T05:27:01.443Z,90.52
2023-04-16T05:29:46.517Z,90.90
2023-04-16T05:32:31.506Z,90.61
2023-04-16T05:35:17.668Z,89.79
2023-04-16T05:38:04.268Z,90.23
2023-04-16T05:40:49.433Z,90.13
2023-04-16T05:43:34.262Z,90.05
2023-04-16T05:46:19.781Z,90.09
2023-04-16T05:49:04.551Z,89.76
2023-04-16T05:51:50.853Z,89.28
2023-04-16T05:54:36.046Z,89.93
2023-04-16T05:57:20.952Z,89.54
2023-04-16T06:00:06.816Z,90.37
2023-04-16T06:02:52.072Z,89.02
2023-04-16T06:05:37.120Z,88.70
2023-04-16T06:08:21.949Z,89.32
2023-04-16T06:11:07.399Z,89.10
2023-04-16T06:13:53.284Z,89.41
2023-04-16T06:16:38.259Z,89.99
2023-04-16T06:19:23.190Z,89.00
2023-04-16T06:22:07.944Z,89.71
2023-04-16T06:24:53.477Z,89.79
2023-04-16T06:27:38.170Z,89.26
2023-04-16T06:30:23.383Z,89.02
2023-04-16T06:33:08.657Z,89.23
2023-04-16T06:35:53.428Z,88.62
2023-04-16T06:38:38.530Z,89.06
2023-04-16T06:41:25.907Z,88.51
2023-04-16T06:44:10.820Z,89.25
2023-04-16T06:46:56.715Z,90.20
2023-04-16T06:49:41.558Z,89.63
2023-04-16T06:52:26.930Z,89.56
2023-04-16T06:55:11.911Z,89.53
2023-04-16T06:57:57.211Z,89.17
2023-04-16T07:00:43.536Z,89.57
2023-04-16T07:03:28.845Z,89.08
2023-04-16T07:06:14.043Z,89.58
2023-04-16T07:08:59.202Z,89.88
2023-04-16T07:11:45.651Z,89.98
2023-04-16T07:14:30.658Z,90.06
2023-04-16T07:17:15.792Z,90.39
2023-04-16T07:20:00.622Z,90.91
2023-04-16T07:22:45.732Z,90.85
2023-04-16T07:25:33.843Z,90.50
2023-04-16T07:28:18.603Z,90.46
2023-04-16T07:31:04.252Z,90.42
2023-04-16T07:33:49.762Z,90.56
2023-04-16T07:36:34.890Z,91.17
2023-04-16T07:39:19.793Z,91.59
2023-04-16T07:42:04.635Z,91.37
2023-04-16T07:44:49.998Z,91.26
2023-04-16T07:47:35.478Z,91.19
2023-04-16T07:50:20.626Z,91.43
2023-04-16T07:53:08.021Z,91.63
2023-04-16T07:55:53.928Z,90.62
2023-04-16T07:58:39.109Z,91.72
2023-04-16T08:01:23.891Z,92.14
2023-04-16T08:04:09.260Z,91.93
2023-04-16T08:06:54.435Z,92.43
2023-04-16T08:09:48.400Z,92.06
2023-04-16T08:12:33.812Z,93.06
2023-04-16T08:15:18.842Z,92.08
2023-04-16T08:18:06.324Z,92.77
2023-04-16T08:20:51.291Z,92.12
2023-04-16T08:23:36.895Z,91.89
2023-04-16T08:26:21.620Z,91.84
2023-04-16T08:29:07.136Z,91.97
2023-04-16T08:31:53.380Z,92.06
2023-04-16T08:34:38.679Z,92.35
2023-04-16T08:37:25.621Z,91.47
2023-04-16T08:40:11.179Z,91.88
2023-04-16T08:42:59.720Z,91.76
2023-04-16T08:45:48.398Z,92.25
2023-04-16T08:48:34.839Z,92.21
2023-04-16T08:51:22.549Z,92.41
2023-04-16T08:54:12.018Z,92.12
2023-04-16T08:56:58.494Z,91.50
2023-04-16T08:59:47.482Z,92.24
2023-04-16T09:02:33.920Z,91.66
2023-04-16T09:05:21.427Z,92.01
2023-04-16T09:08:06.920Z,92.15
2023-04-16T09:10:53.308Z,91.33
2023-04-16T09:13:38.324Z,91.35
2023-04-16T09:16:25.003Z,91.63
2023-04-16T09:19:12.663Z,91.65
2023-04-16T09:21:57.636Z,91.18
2023-04-16T09:24:43.294Z,91.48
2023-04-16T09:27:30.178Z,91.74
2023-04-16T09:30:25.892Z,91.89
2023-04-16T09:33:24.659Z,91.10
2023-04-16T09:36:10.744Z,92.04
2023-04-16T09:39:00.430Z,90.56
2023-04-16T09:41:47.781Z,91.39
2023-04-16T09:44:37.498Z,92.09
2023-04-16T09:47:23.677Z,91.92
2023-04-16T09:50:13.491Z,91.72
2023-04-16T09:53:02.622Z,91.57
2023-04-16T09:55:47.667Z,92.09
2023-04-16T09:58:36.183Z,91.76
2023-04-16T10:01:23.870Z,91.45
2023-04-16T10:04:11.058Z,91.14
2023-04-16T10:07:06.573Z,91.75
2023-04-16T10:09:53.125Z,91.67
2023-04-16T10:12:38.628Z,91.48
2023-04-16T10:15:23.713Z,90.79
2023-04-16T10:18:09.794Z,90.62
2023-04-16T10:20:55.293Z,90.72
2023-04-16T10:23:40.509Z,90.05
2023-04-16T10:26:26.201Z,90.33
2023-04-16T10:29:13.561Z,90.14
2023-04-16T10:31:59.828Z,89.28
2023-04-16T10:34:47.808Z,88.86
2023-04-16T10:37:33.873Z,88.06
2023-04-16T10:40:23.941Z,87.88
2023-04-16T10:43:11.208Z,88.32
2023-04-16T10:45:56.616Z,89.17
2023-04-16T10:48:49.831Z,87.97
2023-04-16T10:51:37.712Z,88.22
2023-04-16T10:54:28.745Z,86.91
2023-04-16T10:57:20.393Z,86.56
2023-04-16T11:00:22.009Z,85.84
2023-04-16T11:03:07.244Z,85.83
2023-04-16T11:05:52.332Z,85.99
2023-04-16T11:08:53.263Z,84.62
2023-04-16T11:11:39.801Z,85.70
2023-04-16T11:14:26.025Z,84.37
2023-04-16T11:17:11.097Z,83.81
2023-04-16T11:19:59.285Z,84.50
2023-04-16T11:22:47.127Z,83.40
2023-04-16T11:25:34.395Z,83.88
2023-04-16T11:28:20.028Z,84.42
2023-04-16T11:31:12.266Z,83.01
2023-04-16T11:33:57.742Z,83.60
2023-04-16T11:36:51.303Z,83.04
2023-04-16T11:39:51.301Z,81.98
2023-04-16T11:42:45.149Z,81.71
2023-04-16T11:45:35.631Z,81.61
2023-04-16T11:48:21.923Z,81.42
2023-04-16T11:51:07.657Z,81.85
2023-04-16T11:53:53.840Z,79.73
2023-04-16T11:56:52.192Z,80.40
2023-04-16T12:00:02.358Z,78.82
2023-04-16T12:02:47.616Z,78.54
2023-04-16T12:05:39.425Z,78.37
2023-04-16T12:08:33.560Z,79.79
2023-04-16T12:11:18.516Z,78.37
2023-04-16T12:14:08.550Z,78.02
2023-04-16T12:16:53.480Z,78.51
2023-04-16T12:19:52.290Z,77.95
2023-04-16T12:22:39.665Z,77.84
2023-04-16T12:25:24.742Z,77.52
2023-04-16T12:28:10.135Z,76.77
2023-04-16T12:30:57.285Z,75.62
2023-04-16T12:33:42.547Z,76.60
2023-04-16T12:36:28.383Z,76.55
2023-04-16T12:39:15.374Z,74.69
2023-04-16T12:42:01.011Z,75.94
2023-04-16T12:44:48.429Z,76.49
2023-04-16T12:47:37.408Z,75.87
2023-04-16T12:50:22.989Z,75.46
2023-04-16T12:53:08.641Z,74.50
2023-04-16T12:55:55.760Z,74.45
2023-04-16T12:58:41.881Z,74.48
2023-04-16T13:01:27.441Z,75.65
2023-04-16T13:04:12.530Z,73.81
2023-04-16T13:07:00.641Z,71.36
2023-04-16T13:09:48.410Z,70.71
2023-04-16T13:12:33.477Z,72.14
2023-04-16T13:15:20.199Z,70.20
2023-04-16T13:18:08.829Z,68.07
2023-04-16T13:20:54.615Z,68.28
2023-04-16T13:23:40.603Z,68.44
2023-04-16T13:26:26.962Z,67.85
2023-04-16T13:29:12.923Z,69.55
2023-04-16T13:31:59.020Z,66.78
2023-04-16T13:34:46.273Z,67.90
2023-04-16T13:37:31.396Z,66.30
2023-04-16T13:40:16.320Z,67.03
2023-04-16T13:43:03.020Z,68.10
2023-04-16T13:45:48.068Z,67.38
2023-04-16T13:48:35.453Z,69.11
2023-04-16T13:51:21.726Z,69.79
2023-04-16T13:54:07.152Z,69.62
2023-04-16T13:56:52.205Z,68.60
2023-04-16T13:59:37.652Z,67.74
2023-04-16T14:02:22.762Z,67.48
2023-04-16T14:05:08.406Z,67.87
2023-04-16T14:07:55.954Z,68.07
2023-04-16T14:10:41.363Z,68.57
2023-04-16T14:13:27.002Z,68.31
2023-04-16T14:16:12.086Z,68.06
2023-04-16T14:18:57.050Z,68.38
2023-04-16T14:21:42.369Z,68.61
2023-04-16T14:24:27.804Z,68.30
2023-04-16T14:27:13.553Z,65.83
2023-04-16T14:29:58.687Z,66.80
2023-04-16T14:32:46.080Z,67.14
2023-04-16T14:35:34.624Z,68.12
2023-04-16T14:38:19.820Z,68.01
2023-04-16T14:41:05.229Z,68.06
2023-04-16T14:43:50.904Z,68.76
2023-04-16T14:46:36.056Z,69.49
2023-04-16T14:49:21.761Z,69.46
2023-04-16T14:52:07.037Z,69.98
2023-04-16T14:54:55.048Z,69.26
2023-04-16T14:57:41.534Z,70.13
2023-04-16T15:00:27.770Z,70.00
2023-04-16T15:03:12.752Z,70.31
2023-04-16T15:05:59.361Z,70.13
2023-04-16T15:08:46.092Z,71.88
2023-04-16T15:11:38.841Z,71.38
2023-04-16T15:14:24.323Z,72.03
2023-04-16T15:17:09.825Z,72.23
2023-04-16T15:19:55.668Z,72.84
2023-04-16T15:22:40.677Z,72.18
2023-04-16T15:25:25.742Z,72.60
2023-04-16T15:28:12.404Z,72.33
2023-04-16T15:31:00.451Z,72.23
2023-04-16T15:33:45.546Z,72.96
2023-04-16T15:36:31.638Z,72.84
2023-04-16T15:39:18.039Z,73.68
2023-04-16T15:42:08.010Z,73.13
2023-04-16T15:44:54.870Z,73.49
2023-04-16T15:47:41.855Z,73.74
2023-04-16T15:50:27.691Z,72.73
2023-04-16T15:53:13.049Z,73.34
2023-04-16T15:55:58.370Z,73.31
2023-04-16T15:58:44.226Z,73.35
2023-04-16T16:01:31.262Z,73.81
2023-04-16T16:04:16.750Z,72.08
2023-04-16T16:07:05.808Z,72.87
2023-04-16T16:09:54.367Z,72.89
2023-04-16T16:12:40.738Z,72.63
2023-04-16T16:15:25.727Z,72.17
2023-04-16T16:18:11.013Z,72.67
2023-04-16T16:20:57.734Z,72.46
2023-04-16T16:23:42.805Z,72.65
2023-04-16T16:26:28.099Z,74.29
2023-04-16T16:29:14.724Z,74.97
2023-04-16T16:32:01.253Z,75.58
2023-04-16T16:34:46.507Z,76.16
2023-04-16T16:37:31.469Z,76.15
2023-04-16T16:40:16.334Z,76.25
2023-04-16T16:43:03.477Z,76.77
2023-04-16T16:45:51.196Z,76.44
2023-04-16T16:48:37.313Z,77.23
2023-04-16T16:51:24.582Z,77.00
2023-04-16T16:54:09.583Z,77.00
2023-04-16T16:56:56.513Z,77.13
2023-04-16T16:59:42.567Z,76.70
2023-04-16T17:02:27.972Z,77.15
2023-04-16T17:05:12.893Z,77.77
2023-04-16T17:07:58.024Z,77.62
2023-04-16T17:10:43.650Z,78.93
2023-04-16T17:13:29.982Z,78.97
2023-04-16T17:16:17.486Z,78.71
2023-04-16T17:19:02.473Z,79.53
2023-04-16T17:21:47.566Z,79.79
2023-04-16T17:24:32.604Z,80.51
2023-04-16T17:27:18.209Z,80.21
2023-04-16T17:30:05.717Z,80.61
2023-04-16T17:32:51.139Z,80.81
2023-04-16T17:35:40.880Z,81.05
2023-04-16T17:38:26.180Z,81.06
2023-04-16T17:41:14.262Z,80.85
2023-04-16T17:43:59.415Z,81.03
2023-04-16T17:46:46.786Z,80.96
2023-04-16T17:49:31.752Z,80.77
2023-04-16T17:52:16.571Z,80.64
2023-04-16T17:55:03.685Z,81.28
2023-04-16T17:57:48.874Z,81.50
2023-04-16T18:00:36.549Z,80.55
2023-04-16T18:03:23.304Z,80.68
2023-04-16T18:06:10.046Z,81.00
2023-04-16T18:08:57.344Z,81.30
2023-04-16T18:11:42.521Z,80.76
2023-04-16T18:14:28.320Z,81.00
2023-04-16T18:17:13.411Z,80.72
2023-04-16T18:19:59.266Z,80.55
2023-04-16T18:22:44.376Z,80.87
2023-04-16T18:25:34.665Z,80.63
2023-04-16T18:28:20.152Z,81.33
2023-04-16T18:31:06.860Z,80.96
2023-04-16T18:33:56.823Z,80.07
2023-04-16T18:36:44.460Z,80.35
2023-04-16T18:39:33.701Z,80.25
2023-04-16T18:42:18.882Z,80.35
2023-04-16T18:45:09.660Z,79.66
2023-04-16T18:47:58.819Z,79.94
2023-04-16T18:50:45.641Z,79.63
2023-04-16T18:53:31.198Z,79.50
2023-04-16T18:56:17.407Z,79.73
2023-04-16T18:59:03.793Z,79.90
2023-04-16T19:01:51.363Z,80.65
2023-04-16T19:04:38.149Z,80.47
2023-04-16T19:07:23.300Z,80.43
2023-04-16T19:10:09.322Z,80.55
2023-04-16T19:12:58.519Z,81.01
2023-04-16T19:15:44.104Z,80.96
2023-04-16T19:18:34.804Z,81.36
2023-04-16T19:21:20.214Z,81.98
2023-04-16T19:24:07.196Z,81.93
2023-04-16T19:26:53.597Z,82.14
2023-04-16T19:29:41.241Z,82.03
2023-04-16T19:32:26.532Z,82.14
2023-04-16T19:35:13.384Z,82.17
2023-04-16T19:37:58.525Z,81.69
2023-04-16T19:40:48.828Z,82.09
2023-04-16T19:43:35.301Z,81.82
2023-04-16T19:46:20.787Z,81.55
2023-04-16T19:49:05.883Z,81.61
2023-04-16T19:51:53.795Z,81.25
2023-04-16T19:54:39.003Z,81.21
2023-04-16T19:57:28.331Z,81.05
2023-04-16T20:00:13.993Z,80.63
2023-04-16T20:02:59.246Z,80.78
2023-04-16T20:05:44.651Z,80.83
2023-04-16T20:08:30.794Z,80.58
2023-04-16T20:11:18.230Z,79.89
2023-04-16T20:14:03.312Z,80.86
2023-04-16T20:16:54.522Z,80.25
2023-04-16T20:19:39.788Z,79.60
2023-04-16T20:22:26.970Z,80.65
2023-04-16T20:25:14.293Z,80.34
2023-04-16T20:28:00.189Z,81.06
2023-04-16T20:30:45.380Z,81.43
2023-04-16T20:33:30.588Z,80.68
2023-04-16T20:36:16.824Z,81.06
2023-04-16T20:39:02.236Z,81.48
2023-04-16T20:41:56.849Z,81.20
2023-04-16T20:44:42.422Z,81.62
2023-04-16T20:47:28.476Z,81.59
2023-04-16T20:50:13.603Z,81.74
2023-04-16T20:52:58.614Z,81.49
2023-04-16T20:55:46.088Z,81.08
2023-04-16T20:58:31.489Z,81.34
2023-04-16T21:01:18.223Z,80.69
2023-04-16T21:04:03.916Z,80.15
2023-04-16T21:06:53.574Z,80.43
2023-04-16T21:09:38.764Z,80.18
2023-04-16T21:12:23.652Z,80.11
2023-04-16T21:15:08.862Z,80.12
2023-04-16T21:17:53.712Z,79.73
2023-04-16T21:20:39.123Z,80.12
2023-04-16T21:23:24.002Z,80.32
2023-04-16T21:26:08.967Z,80.03
2023-04-16T21:28:55.138Z,80.41
2023-04-16T21:31:40.407Z,80.49
2023-04-16T21:34:26.222Z,81.16
2023-04-16T21:37:11.162Z,80.52
2023-04-16T21:39:56.009Z,80.70
2023-04-16T21:42:42.209Z,80.81
2023-04-16T21:45:28.862Z,81.45
2023-04-16T21:48:17.830Z,80.95
2023-04-16T21:51:06.588Z,80.97
2023-04-16T21:53:52.872Z,80.79
2023-04-16T21:56:37.787Z,80.55
2023-04-16T21:59:23.156Z,80.64
2023-04-16T22:02:09.329Z,81.25
2023-04-16T22:04:54.329Z,80.98
2023-04-16T22:07:39.494Z,81.08
2023-04-16T22:10:26.195Z,80.93
2023-04-16T22:13:13.662Z,81.81
2023-04-16T22:16:01.594Z,81.78
2023-04-16T22:18:47.251Z,81.70
2023-04-16T22:21:32.012Z,81.70
2023-04-16T22:24:16.978Z,81.76
2023-04-16T22:27:03.086Z,81.50
2023-04-16T22:29:48.254Z,82.47
2023-04-16T22:32:33.860Z,82.01
2023-04-16T22:35:18.779Z,82.76
2023-04-16T22:38:03.609Z,82.14
2023-04-16T22:40:48.877Z,81.81
2023-04-16T22:43:37.999Z,82.63
2023-04-16T22:46:24.604Z,82.92
2023-04-16T22:49:10.059Z,82.24
2023-04-16T22:51:55.436Z,82.47
2023-04-16T22:54:41.027Z,82.61
2023-04-16T22:57:26.079Z,82.54
2023-04-16T23:00:15.752Z,82.98
2023-04-16T23:03:01.182Z,82.48
2023-04-16T23:05:46.315Z,83.05
2023-04-16T23:08:31.307Z,83.10
2023-04-16T23:11:16.199Z,83.80
2023-04-16T23:14:03.309Z,83.06
2023-04-16T23:16:48.135Z,83.50
2023-04-16T23:19:33.115Z,82.92
2023-04-16T23:22:17.859Z,83.13
2023-04-16T23:25:02.654Z,82.85
2023-04-16T23:27:47.741Z,83.07
2023-04-16T23:30:33.666Z,83.12
2023-04-16T23:33:19.647Z,83.04
2023-04-16T23:36:05.512Z,83.47
2023-04-16T23:38:50.825Z,83.03
2023-04-16T23:41:35.669Z,83.89
2023-04-16T23:44:20.513Z,83.05
2023-04-16T23:47:05.716Z,83.34
2023-04-16T23:49:50.598Z,82.69
2023-04-16T23:52:35.625Z,83.43
2023-04-16T23:55:21.360Z,83.46
2023-04-16T23:58:06.430Z,83.50
